createdAt,value
2023-02-18T00:02:19.402Z,16.60
2023-02-18T00:05:06.386Z,16.60
2023-02-18T00:07:47.442Z,16.60
2023-02-18T00:10:34.362Z,16.60
2023-02-18T00:13:14.412Z,16.60
2023-02-18T00:16:01.357Z,16.60
2023-02-18T00:18:41.442Z,16.60
2023-02-18T00:21:28.367Z,16.60
2023-02-18T00:24:22.355Z,16.60
2023-02-18T00:27:09.453Z,16.60
2023-02-18T00:29:49.354Z,16.60
2023-02-18T00:32:36.349Z,16.60
2023-02-18T00:35:23.377Z,16.60
2023-02-18T00:38:10.348Z,16.60
2023-02-18T00:40:50.406Z,16.60
2023-02-18T00:43:37.362Z,16.60
2023-02-18T00:46:17.425Z,16.60
2023-02-18T00:49:04.359Z,16.60
2023-02-18T00:51:51.356Z,16.60
2023-02-18T00:54:38.400Z,16.60
2023-02-18T00:57:18.381Z,16.60
2023-02-18T00:59:58.828Z,16.60
2023-02-18T01:02:45.378Z,16.60
2023-02-18T01:05:25.495Z,16.60
2023-02-18T01:08:12.390Z,16.60
2023-02-18T01:11:00.357Z,16.60
2023-02-18T01:13:48.354Z,16.70
2023-02-18T01:16:29.417Z,16.60
2023-02-18T01:19:16.360Z,16.60
2023-02-18T01:22:10.380Z,16.60
2023-02-18T01:25:04.374Z,16.60
2023-02-18T01:27:45.885Z,16.60
2023-02-18T01:30:33.424Z,16.60
2023-02-18T01:33:20.361Z,16.60
2023-02-18T01:36:07.667Z,16.60
2023-02-18T01:38:47.888Z,16.60
2023-02-18T01:41:34.365Z,16.60
2023-02-18T01:44:22.483Z,16.60
2023-02-18T01:47:02.347Z,16.60
2023-02-18T01:49:46.035Z,16.60
2023-02-18T01:52:39.341Z,16.60
2023-02-18T01:55:26.413Z,16.50
2023-02-18T01:58:06.357Z,16.60
2023-02-18T02:00:56.404Z,16.60
2023-02-18T02:03:43.340Z,16.60
2023-02-18T02:06:24.213Z,16.60
2023-02-18T02:09:15.435Z,16.60
2023-02-18T02:12:56.347Z,16.60
2023-02-18T02:15:50.417Z,16.60
2023-02-18T02:18:54.359Z,16.60
2023-02-18T02:22:00.358Z,16.50
2023-02-18T02:25:15.420Z,16.50
2023-02-18T02:28:17.376Z,16.50
2023-02-18T02:31:28.489Z,16.50
2023-02-18T02:34:29.359Z,16.50
2023-02-18T02:37:32.356Z,16.50
2023-02-18T02:40:32.425Z,16.50
2023-02-18T02:44:03.365Z,16.50
2023-02-18T02:46:59.383Z,16.50
2023-02-18T02:50:08.363Z,16.50
2023-02-18T02:53:01.386Z,16.50
2023-02-18T02:55:48.357Z,16.50
2023-02-18T02:58:35.411Z,16.50
2023-02-18T03:01:42.386Z,16.50
2023-02-18T03:04:53.265Z,16.60
2023-02-18T03:07:57.363Z,16.50
2023-02-18T03:11:03.400Z,16.50
2023-02-18T03:13:53.380Z,16.50
2023-02-18T03:17:09.375Z,16.50
2023-02-18T03:19:56.432Z,16.50
2023-02-18T03:22:45.356Z,16.50
2023-02-18T03:25:26.488Z,16.60
2023-02-18T03:28:22.377Z,16.50
2023-02-18T03:31:11.488Z,16.50
2023-02-18T03:34:07.366Z,16.50
2023-02-18T03:36:50.409Z,16.50
2023-02-18T03:39:40.368Z,16.50
2023-02-18T03:42:22.423Z,16.50
2023-02-18T03:45:10.377Z,16.50
2023-02-18T03:47:50.437Z,16.50
2023-02-18T03:50:37.364Z,16.50
2023-02-18T03:53:24.388Z,16.50
2023-02-18T03:56:11.347Z,16.50
2023-02-18T03:58:51.463Z,16.50
2023-02-18T04:01:38.393Z,16.50
2023-02-18T04:04:18.494Z,16.40
2023-02-18T04:07:05.361Z,16.50
2023-02-18T04:09:52.351Z,16.50
2023-02-18T04:12:39.362Z,16.50
2023-02-18T04:15:26.351Z,16.50
2023-02-18T04:18:06.867Z,16.50
2023-02-18T04:20:53.379Z,16.40
2023-02-18T04:23:40.393Z,16.50
2023-02-18T04:26:20.475Z,16.40
2023-02-18T04:29:07.380Z,16.50
2023-02-18T04:31:54.406Z,16.40
2023-02-18T04:34:41.362Z,16.40
2023-02-18T04:37:28.377Z,16.50
2023-02-18T04:40:09.246Z,16.40
2023-02-18T04:42:56.361Z,16.40
2023-02-18T04:45:36.524Z,16.40
2023-02-18T04:48:23.354Z,16.40
2023-02-18T04:51:10.394Z,16.40
2023-02-18T04:53:57.365Z,16.40
2023-02-18T04:56:37.552Z,16.40
2023-02-18T04:59:24.378Z,16.40
2023-02-18T05:02:11.426Z,16.30
2023-02-18T05:04:51.370Z,16.40
2023-02-18T05:07:38.537Z,16.40
2023-02-18T05:10:22.396Z,16.40
2023-02-18T05:13:09.382Z,16.30
2023-02-18T05:15:49.477Z,16.40
2023-02-18T05:18:36.370Z,16.40
2023-02-18T05:21:16.457Z,16.40
2023-02-18T05:24:03.382Z,16.30
2023-02-18T05:26:43.453Z,16.30
2023-02-18T05:29:30.392Z,16.30
2023-02-18T05:32:10.512Z,16.30
2023-02-18T05:34:57.370Z,16.30
2023-02-18T05:37:44.365Z,16.30
2023-02-18T05:40:31.409Z,16.30
2023-02-18T05:43:11.388Z,16.30
2023-02-18T05:45:51.902Z,16.30
2023-02-18T05:48:38.385Z,16.30
2023-02-18T05:51:25.380Z,16.30
2023-02-18T05:54:12.374Z,16.30
2023-02-18T05:56:52.537Z,16.30
2023-02-18T05:59:39.363Z,16.30
2023-02-18T06:02:26.455Z,16.30
2023-02-18T06:05:06.421Z,16.20
2023-02-18T06:07:55.269Z,16.30
2023-02-18T06:10:36.386Z,16.30
2023-02-18T06:13:17.099Z,16.30
2023-02-18T06:16:06.597Z,16.30
2023-02-18T06:18:53.467Z,16.30
2023-02-18T06:21:33.387Z,16.30
2023-02-18T06:24:20.379Z,16.30
2023-02-18T06:27:00.422Z,16.30
2023-02-18T06:29:47.381Z,16.30
2023-02-18T06:32:27.472Z,16.40
2023-02-18T06:35:14.385Z,16.40
2023-02-18T06:37:54.469Z,16.30
2023-02-18T06:40:41.377Z,16.30
2023-02-18T06:43:21.430Z,16.30
2023-02-18T06:46:09.915Z,16.30
2023-02-18T06:48:49.461Z,16.30
2023-02-18T06:51:36.372Z,16.30
2023-02-18T06:54:23.382Z,16.40
2023-02-18T06:57:10.455Z,16.40
2023-02-18T06:59:50.394Z,16.40
2023-02-18T07:02:37.380Z,16.40
2023-02-18T07:05:17.426Z,16.40
2023-02-18T07:08:04.385Z,16.40
2023-02-18T07:10:44.429Z,16.40
2023-02-18T07:13:31.386Z,16.40
2023-02-18T07:16:11.750Z,16.30
2023-02-18T07:18:58.368Z,16.40
2023-02-18T07:21:45.372Z,16.30
2023-02-18T07:24:32.370Z,16.30
2023-02-18T07:27:12.431Z,16.30
2023-02-18T07:30:00.419Z,16.30
2023-02-18T07:32:40.437Z,16.40
2023-02-18T07:35:28.379Z,16.30
2023-02-18T07:38:08.432Z,16.40
2023-02-18T07:40:55.389Z,16.40
2023-02-18T07:43:35.417Z,16.30
2023-02-18T07:46:23.394Z,16.40
2023-02-18T07:49:04.438Z,16.40
2023-02-18T07:51:54.385Z,16.30
2023-02-18T07:54:41.374Z,16.30
2023-02-18T07:57:28.380Z,16.30
2023-02-18T08:00:08.472Z,16.40
2023-02-18T08:02:55.376Z,16.40
2023-02-18T08:05:35.505Z,16.40
2023-02-18T08:08:24.398Z,16.40
2023-02-18T08:11:18.497Z,16.40
2023-02-18T08:14:05.385Z,16.40
2023-02-18T08:16:52.428Z,16.40
2023-02-18T08:19:39.445Z,16.50
2023-02-18T08:22:19.381Z,16.50
2023-02-18T08:25:06.871Z,16.50
2023-02-18T08:27:46.385Z,16.50
2023-02-18T08:30:33.542Z,16.50
2023-02-18T08:33:13.391Z,16.50
2023-02-18T08:36:01.446Z,16.50
2023-02-18T08:38:41.403Z,16.50
2023-02-18T08:41:28.387Z,16.50
2023-02-18T08:44:08.449Z,16.60
2023-02-18T08:47:02.390Z,16.70
2023-02-18T08:49:42.939Z,16.80
2023-02-18T08:52:29.403Z,16.90
2023-02-18T08:55:09.553Z,17.00
2023-02-18T08:57:56.393Z,17.00
2023-02-18T09:00:36.792Z,17.10
2023-02-18T09:03:27.404Z,17.10
2023-02-18T09:06:08.727Z,17.10
2023-02-18T09:08:55.396Z,17.20
2023-02-18T09:11:42.387Z,17.20
2023-02-18T09:14:29.405Z,17.20
2023-02-18T09:17:09.872Z,17.20
2023-02-18T09:19:56.385Z,17.30
2023-02-18T09:22:36.517Z,17.30
2023-02-18T09:25:23.410Z,17.30
2023-02-18T09:28:03.933Z,17.40
2023-02-18T09:30:50.476Z,17.40
2023-02-18T09:33:30.528Z,17.40
2023-02-18T09:36:17.406Z,17.40
2023-02-18T09:38:58.448Z,17.40
2023-02-18T09:41:56.374Z,17.40
2023-02-18T09:44:51.385Z,17.40
2023-02-18T09:47:52.377Z,17.40
2023-02-18T09:50:40.381Z,17.40
2023-02-18T09:53:27.370Z,17.40
2023-02-18T09:56:10.711Z,17.40
2023-02-18T09:58:59.394Z,17.40
2023-02-18T10:01:42.800Z,17.40
2023-02-18T10:04:37.388Z,17.40
2023-02-18T10:07:51.370Z,17.40
2023-02-18T10:10:41.457Z,17.50
2023-02-18T10:13:35.397Z,17.50
2023-02-18T10:16:25.435Z,17.50
2023-02-18T10:19:56.402Z,17.40
2023-02-18T10:22:44.406Z,17.40
2023-02-18T10:25:39.384Z,17.50
2023-02-18T10:28:31.406Z,17.50
2023-02-18T10:31:16.556Z,17.50
2023-02-18T10:34:27.375Z,17.50
2023-02-18T10:38:00.403Z,17.50
2023-02-18T10:41:02.121Z,17.60
2023-02-18T10:43:48.391Z,17.60
2023-02-18T10:46:41.396Z,17.60
2023-02-18T10:49:28.403Z,17.70
2023-02-18T10:52:16.724Z,17.70
2023-02-18T10:55:13.409Z,17.70
2023-02-18T10:58:01.488Z,17.80
2023-02-18T11:00:45.414Z,17.80
2023-02-18T11:03:38.429Z,17.80
2023-02-18T11:06:46.394Z,17.80
2023-02-18T11:09:46.801Z,17.80
2023-02-18T11:12:34.479Z,17.90
2023-02-18T11:15:21.412Z,17.90
2023-02-18T11:18:47.441Z,18.00
2023-02-18T11:21:45.426Z,18.00
2023-02-18T11:24:26.440Z,18.00
2023-02-18T11:27:27.402Z,18.00
2023-02-18T11:30:20.405Z,18.00
2023-02-18T11:33:14.769Z,18.00
2023-02-18T11:35:58.398Z,18.10
2023-02-18T11:39:11.791Z,18.00
2023-02-18T11:42:11.398Z,18.00
2023-02-18T11:44:58.250Z,18.00
2023-02-18T11:47:50.397Z,18.00
2023-02-18T11:50:32.936Z,17.90
2023-02-18T11:53:52.402Z,18.00
2023-02-18T11:56:42.401Z,18.00
2023-02-18T11:59:29.418Z,18.00
2023-02-18T12:02:09.892Z,18.00
2023-02-18T12:05:12.421Z,18.00
2023-02-18T12:08:09.472Z,18.00
2023-02-18T12:11:08.670Z,18.00
2023-02-18T12:14:01.426Z,18.00
2023-02-18T12:16:52.503Z,18.00
2023-02-18T12:19:37.144Z,18.00
2023-02-18T12:22:39.409Z,18.00
2023-02-18T12:25:53.470Z,18.00
2023-02-18T12:29:06.406Z,18.00
2023-02-18T12:32:23.412Z,18.00
2023-02-18T12:35:26.453Z,18.00
2023-02-18T12:38:37.430Z,18.00
2023-02-18T12:41:38.457Z,18.00
2023-02-18T12:44:37.384Z,18.00
2023-02-18T12:47:30.406Z,18.00
2023-02-18T12:50:23.411Z,18.00
2023-02-18T12:53:37.419Z,18.00
2023-02-18T12:57:01.433Z,18.00
2023-02-18T13:00:02.602Z,18.00
2023-02-18T13:02:58.442Z,18.10
2023-02-18T13:05:52.415Z,18.10
2023-02-18T13:08:58.412Z,18.10
2023-02-18T13:12:10.417Z,18.00
2023-02-18T13:15:03.789Z,18.00
2023-02-18T13:17:51.402Z,18.00
2023-02-18T13:20:58.406Z,18.00
2023-02-18T13:23:52.432Z,18.00
2023-02-18T13:26:41.413Z,17.90
2023-02-18T13:29:34.403Z,17.90
2023-02-18T13:32:30.424Z,17.90
2023-02-18T13:35:26.402Z,17.90
2023-02-18T13:38:54.557Z,17.90
2023-02-18T13:41:35.414Z,17.90
2023-02-18T13:44:28.431Z,17.80
2023-02-18T13:47:08.466Z,17.80
2023-02-18T13:49:55.420Z,17.80
2023-02-18T13:52:35.476Z,17.80
2023-02-18T13:55:32.409Z,17.70
2023-02-18T13:58:29.409Z,17.70
2023-02-18T14:01:19.405Z,17.70
2023-02-18T14:04:04.530Z,17.70
2023-02-18T14:07:23.401Z,17.70
2023-02-18T14:10:27.442Z,17.70
2023-02-18T14:13:26.412Z,17.80
2023-02-18T14:16:13.473Z,17.70
2023-02-18T14:19:04.410Z,17.80
2023-02-18T14:22:40.420Z,17.80
2023-02-18T14:25:27.417Z,17.90
2023-02-18T14:28:22.464Z,17.90
2023-02-18T14:31:30.548Z,17.90
2023-02-18T14:35:06.393Z,17.90
2023-02-18T14:38:13.461Z,18.00
2023-02-18T14:41:21.415Z,18.00
2023-02-18T14:44:17.694Z,18.00
2023-02-18T14:47:16.433Z,18.00
2023-02-18T14:50:00.923Z,18.00
2023-02-18T14:52:54.412Z,18.00
2023-02-18T14:55:38.837Z,18.10
2023-02-18T14:58:52.437Z,18.00
2023-02-18T15:01:41.490Z,18.10
2023-02-18T15:04:22.547Z,18.00
2023-02-18T15:07:11.402Z,18.00
2023-02-18T15:10:00.427Z,18.00
2023-02-18T15:12:47.487Z,18.00
2023-02-18T15:15:28.429Z,18.00
2023-02-18T15:18:27.422Z,18.00
2023-02-18T15:21:09.856Z,17.90
2023-02-18T15:24:04.428Z,17.90
2023-02-18T15:26:56.419Z,17.90
2023-02-18T15:29:41.593Z,17.90
2023-02-18T15:32:35.425Z,17.90
2023-02-18T15:35:31.469Z,17.90
2023-02-18T15:38:28.411Z,17.90
2023-02-18T15:41:09.635Z,17.90
2023-02-18T15:44:10.421Z,17.90
2023-02-18T15:46:57.393Z,17.90
2023-02-18T15:49:46.429Z,17.90
2023-02-18T15:52:46.405Z,18.00
2023-02-18T15:55:45.475Z,18.00
2023-02-18T15:58:28.403Z,18.00
2023-02-18T16:01:34.530Z,18.00
2023-02-18T16:04:15.409Z,18.00
2023-02-18T16:06:56.524Z,18.00
2023-02-18T16:09:46.415Z,18.00
2023-02-18T16:12:37.488Z,18.00
2023-02-18T16:15:28.425Z,18.00
2023-02-18T16:18:28.918Z,18.00
2023-02-18T16:21:25.445Z,18.00
2023-02-18T16:24:39.415Z,18.00
2023-02-18T16:27:26.435Z,18.00
2023-02-18T16:30:35.524Z,17.90
2023-02-18T16:33:16.007Z,17.90
2023-02-18T16:36:04.437Z,17.90
2023-02-18T16:38:52.425Z,18.00
2023-02-18T16:41:32.469Z,18.00
2023-02-18T16:44:20.422Z,18.00
2023-02-18T16:47:00.486Z,18.00
2023-02-18T16:49:51.443Z,18.00
2023-02-18T16:52:31.493Z,18.00
2023-02-18T16:55:23.441Z,18.00
2023-02-18T16:58:03.593Z,18.00
2023-02-18T17:00:52.468Z,18.00
2023-02-18T17:03:39.432Z,17.90
2023-02-18T17:06:26.441Z,17.90
2023-02-18T17:09:15.037Z,18.00
2023-02-18T17:12:02.450Z,17.90
2023-02-18T17:14:50.430Z,17.90
2023-02-18T17:17:37.467Z,17.90
2023-02-18T17:20:17.513Z,17.90
2023-02-18T17:23:05.427Z,17.90
2023-02-18T17:25:59.443Z,17.90
2023-02-18T17:28:46.431Z,17.90
2023-02-18T17:31:34.629Z,17.90
2023-02-18T17:34:31.442Z,17.90
2023-02-18T17:37:11.484Z,17.90
2023-02-18T17:39:59.428Z,17.80
2023-02-18T17:42:39.483Z,17.80
2023-02-18T17:45:30.432Z,17.80
2023-02-18T17:48:10.482Z,17.80
2023-02-18T17:50:58.457Z,17.80
2023-02-18T17:53:38.513Z,17.80
2023-02-18T17:56:25.429Z,17.80
2023-02-18T17:59:05.542Z,17.80
2023-02-18T18:01:52.429Z,17.80
2023-02-18T18:04:32.612Z,17.80
2023-02-18T18:07:19.434Z,17.80
2023-02-18T18:10:06.404Z,17.70
2023-02-18T18:12:53.510Z,17.70
2023-02-18T18:15:33.428Z,17.70
2023-02-18T18:18:21.447Z,17.70
2023-02-18T18:21:13.325Z,17.70
2023-02-18T18:24:01.463Z,17.70
2023-02-18T18:26:48.504Z,17.70
2023-02-18T18:29:28.418Z,17.70
2023-02-18T18:32:09.171Z,17.70
2023-02-18T18:34:55.421Z,17.70
2023-02-18T18:37:42.437Z,17.70
2023-02-18T18:40:30.396Z,17.70
2023-02-18T18:43:40.213Z,17.70
2023-02-18T18:46:19.516Z,17.60
2023-02-18T18:49:06.426Z,17.60
2023-02-18T18:51:46.496Z,17.60
2023-02-18T18:54:33.455Z,17.60
2023-02-18T18:57:20.458Z,17.60
2023-02-18T19:00:07.438Z,17.60
2023-02-18T19:02:54.455Z,17.60
2023-02-18T19:05:44.445Z,17.60
2023-02-18T19:08:25.518Z,17.60
2023-02-18T19:11:12.462Z,17.60
2023-02-18T19:13:59.425Z,17.60
2023-02-18T19:16:48.511Z,17.60
2023-02-18T19:19:31.440Z,17.60
2023-02-18T19:22:18.513Z,17.60
2023-02-18T19:25:12.437Z,17.50
2023-02-18T19:28:06.433Z,17.40
2023-02-18T19:30:47.292Z,17.30
2023-02-18T19:33:34.441Z,17.20
2023-02-18T19:36:21.455Z,17.10
2023-02-18T19:39:01.518Z,17.00
2023-02-18T19:41:48.469Z,16.90
2023-02-18T19:44:28.500Z,16.90
2023-02-18T19:47:15.445Z,16.90
2023-02-18T19:50:02.479Z,16.80
2023-02-18T19:52:49.440Z,16.80
2023-02-18T19:55:29.571Z,16.80
2023-02-18T19:58:17.463Z,16.80
2023-02-18T20:00:57.522Z,16.70
2023-02-18T20:03:44.453Z,16.70
2023-02-18T20:06:32.436Z,16.70
2023-02-18T20:09:13.450Z,16.70
2023-02-18T20:12:00.438Z,16.60
2023-02-18T20:14:40.649Z,16.60
2023-02-18T20:17:27.444Z,16.60
2023-02-18T20:20:21.438Z,16.60
2023-02-18T20:23:08.454Z,16.50
2023-02-18T20:25:55.512Z,16.50
2023-02-18T20:28:35.449Z,16.50
2023-02-18T20:31:23.547Z,16.40
2023-02-18T20:34:04.467Z,16.40
2023-02-18T20:36:45.615Z,16.40
2023-02-18T20:39:34.442Z,16.30
2023-02-18T20:42:16.857Z,16.30
2023-02-18T20:45:03.444Z,16.30
2023-02-18T20:47:50.577Z,16.30
2023-02-18T20:50:30.445Z,16.30
2023-02-18T20:53:10.942Z,16.30
2023-02-18T20:56:01.459Z,16.30
2023-02-18T20:58:42.121Z,16.30
2023-02-18T21:01:30.517Z,16.30
2023-02-18T21:04:12.648Z,16.20
2023-02-18T21:07:00.462Z,16.30
2023-02-18T21:09:47.472Z,16.30
2023-02-18T21:12:34.471Z,16.20
2023-02-18T21:15:21.450Z,16.20
2023-02-18T21:18:08.464Z,16.20
2023-02-18T21:20:48.662Z,16.20
2023-02-18T21:23:35.433Z,16.30
2023-02-18T21:26:30.464Z,16.20
2023-02-18T21:29:17.481Z,16.20
2023-02-18T21:32:04.511Z,16.20
2023-02-18T21:34:51.450Z,16.10
2023-02-18T21:37:31.502Z,16.10
2023-02-18T21:40:18.455Z,16.10
2023-02-18T21:42:58.559Z,16.10
2023-02-18T21:45:45.475Z,16.10
2023-02-18T21:48:50.443Z,16.10
2023-02-18T21:52:07.458Z,16.10
2023-02-18T21:54:49.574Z,16.10
2023-02-18T21:57:36.449Z,16.00
2023-02-18T22:00:21.172Z,16.10
2023-02-18T22:03:09.438Z,16.10
2023-02-18T22:05:50.386Z,16.00
2023-02-18T22:08:37.468Z,16.00
2023-02-18T22:11:17.568Z,16.00
2023-02-18T22:14:05.464Z,16.00
2023-02-18T22:16:46.516Z,16.00
2023-02-18T22:19:33.456Z,16.00
2023-02-18T22:22:13.513Z,16.00
2023-02-18T22:25:00.474Z,16.00
2023-02-18T22:27:40.517Z,16.00
2023-02-18T22:30:27.465Z,16.00
2023-02-18T22:33:07.513Z,16.00
2023-02-18T22:35:54.474Z,16.00
2023-02-18T22:38:35.540Z,15.90
2023-02-18T22:41:24.447Z,16.00
2023-02-18T22:44:14.466Z,16.00
2023-02-18T22:46:56.553Z,16.00
2023-02-18T22:49:43.451Z,16.00
2023-02-18T22:52:30.458Z,16.00
2023-02-18T22:55:10.514Z,16.00
2023-02-18T22:57:57.458Z,16.00
2023-02-18T23:00:37.581Z,16.00
2023-02-18T23:03:24.468Z,16.10
2023-02-18T23:06:08.513Z,16.10
2023-02-18T23:08:56.454Z,16.10
2023-02-18T23:11:36.520Z,16.10
2023-02-18T23:14:26.462Z,16.10
2023-02-18T23:17:14.576Z,16.10
2023-02-18T23:20:01.473Z,16.10
2023-02-18T23:22:44.210Z,16.10
2023-02-18T23:25:30.469Z,16.10
2023-02-18T23:28:10.495Z,16.10
2023-02-18T23:30:57.536Z,16.10
2023-02-18T23:33:37.502Z,16.10
2023-02-18T23:36:27.477Z,16.10
2023-02-18T23:39:17.458Z,16.10
2023-02-18T23:42:04.438Z,16.10
2023-02-18T23:44:51.449Z,16.10
2023-02-18T23:47:38.470Z,16.10
2023-02-18T23:50:18.881Z,16.10
2023-02-18T23:53:05.477Z,16.10
2023-02-18T23:55:52.473Z,16.10
2023-02-18T23:58:40.452Z,16.10
